Time;durP1;ratioP1;P1;durP2;ratioP2;P2;SDS_P1;SDS_P2;PMS_P1;PMS_P2;Temp;Humidity;BMP_temperature;BMP_pressure;BME280_temperature;BME280_humidity;BME280_pressure;Samples;Min_cycle;Max_cycle;Signal;HPM_P1;HPM_P2
2022/05/04 00:01:00;;;;;;;;;;;;;;;;;;5058304;28;1963;-68
2022/05/04 00:03:25;;;;;;;;;;;;;;;;;;5059228;28;1377;-68
2022/05/04 00:05:51;;;;;;;;;;;;;;;;;;5058530;28;1450;-68
2022/05/04 00:08:16;;;;;;;;;;;;;;;;;;5057877;28;1223;-68
2022/05/04 00:10:41;;;;;;;;;;;;;;;;;;5058524;28;1251;-68
2022/05/04 00:13:07;;;;;;;;;;;;;;;;;;5059319;28;1522;-68
2022/05/04 00:15:32;;;;;;;;;;;;;;;;;;5058936;28;1263;-68
2022/05/04 00:17:57;;;;;;;;;;;;;;;;;;5058203;28;1279;-67
2022/05/04 00:20:22;;;;;;;;;;;;;;;;;;5058511;28;1446;-67
2022/05/04 00:22:47;;;;;;;;;;;;;;;;;;5060801;28;1894;-68
2022/05/04 00:25:13;;;;;;;;;;;;;;;;;;5060533;28;1282;-67
2022/05/04 00:27:38;;;;;;;;;;;;;;;;;;5060411;28;1669;-66
2022/05/04 00:30:04;;;;;;;;;;;;;;;;;;5061776;28;1302;-65
2022/05/04 00:32:29;;;;;;;;;;;;;;;;;;5061582;28;1478;-66
2022/05/04 00:34:55;;;;;;;;;;;;;;;;;;5060459;28;1454;-65
2022/05/04 00:37:20;;;;;;;;;;;;;;;;;;5062615;28;1270;-66
2022/05/04 00:39:47;;;;;;;;;;;;;;;;;;5062757;28;1255;-66
2022/05/04 00:42:15;;;;;;;;;;;;;;;;;;5061957;28;1957;-67
2022/05/04 00:44:43;;;;;;;;;;;;;;;;;;5061669;28;1306;-65
2022/05/04 00:47:08;;;;;;;;;;;;;;;;;;5061437;28;1119;-66
2022/05/04 00:49:34;;;;;;;;;;;;;;;;;;5060444;28;1357;-66
2022/05/04 00:51:59;;;;;;;;;;;;;;;;;;5062215;28;1251;-66
2022/05/04 00:54:25;;;;;;;;;;;;;;;;;;5061724;28;1495;-67
2022/05/04 00:56:50;;;;;;;;;;;;;;;;;;5062032;28;1322;-67
2022/05/04 00:59:15;;;;;;;;;;;;;;;;;;5061486;28;1428;-67
2022/05/04 01:01:41;;;;;;;;;;;;;;;;;;5061767;28;1894;-66
2022/05/04 01:04:07;;;;;;;;;;;;;;;;;;5060807;28;1419;-67
2022/05/04 01:06:33;;;;;;;;;;;;;;;;;;5062029;28;1319;-68
2022/05/04 01:08:58;;;;;;;;;;;;;;;;;;5060363;28;1382;-67
2022/05/04 01:11:23;;;;;;;;;;;;;;;;;;5061801;28;1251;-67
2022/05/04 01:14:03;;;;;;;;;;;;;;;;;;5059508;28;1335;-67
2022/05/04 01:16:29;;;;;;;;;;;;;;;;;;5060551;28;1283;-67
2022/05/04 01:18:54;;;;;;;;;;;;;;;;;;5062000;28;1275;-67
2022/05/04 01:21:19;;;;;;;;;;;;;;;;;;5061609;28;1914;-67
2022/05/04 01:23:46;;;;;;;;;;;;;;;;;;5061542;28;1314;-68
2022/05/04 01:26:11;;;;;;;;;;;;;;;;;;5061555;28;1234;-68
2022/05/04 01:28:37;;;;;;;;;;;;;;;;;;5060103;28;1373;-68
2022/05/04 01:31:02;;;;;;;;;;;;;;;;;;5061306;28;1216;-68
2022/05/04 01:33:27;;;;;;;;;;;;;;;;;;5062070;28;1175;-68
2022/05/04 01:35:52;;;;;;;;;;;;;;;;;;5061190;28;1208;-68
2022/05/04 01:38:17;;;;;;;;;;;;;;;;;;5061213;28;1346;-68
2022/05/04 01:40:43;;;;;;;;;;;;;;;;;;5061091;28;1259;-68
2022/05/04 01:43:08;;;;;;;;;;;;;;;;;;5060416;28;1886;-68
2022/05/04 01:45:33;;;;;;;;;;;;;;;;;;5061187;28;1318;-68
2022/05/04 01:47:58;;;;;;;;;;;;;;;;;;5060521;28;1361;-67
2022/05/04 01:50:23;;;;;;;;;;;;;;;;;;5057939;28;1406;-67
2022/05/04 01:52:49;;;;;;;;;;;;;;;;;;5057264;28;1324;-67
2022/05/04 01:55:14;;;;;;;;;;;;;;;;;;5059990;28;1372;-66
2022/05/04 01:57:39;;;;;;;;;;;;;;;;;;5060679;28;1714;-68
2022/05/04 02:00:06;;;;;;;;;;;;;;;;;;5060876;28;1259;-67
2022/05/04 02:02:32;;;;;;;;;;;;;;;;;;5059451;28;1963;-67
2022/05/04 02:04:57;;;;;;;;;;;;;;;;;;5058881;28;1313;-68
2022/05/04 02:07:23;;;;;;;;;;;;;;;;;;5060421;28;1274;-67
2022/05/04 02:09:48;;;;;;;;;;;;;;;;;;5060969;28;1379;-67
2022/05/04 02:12:13;;;;;;;;;;;;;;;;;;5060952;28;1228;-68
2022/05/04 02:14:38;;;;;;;;;;;;;;;;;;5061176;28;1298;-67
2022/05/04 02:17:04;;;;;;;;;;;;;;;;;;5058995;28;1397;-67
2022/05/04 02:19:29;;;;;;;;;;;;;;;;;;5059408;28;1366;-66
2022/05/04 02:21:55;;;;;;;;;;;;;;;;;;5060548;28;1889;-67
2022/05/04 02:24:23;;;;;;;;;;;;;;;;;;5060735;28;1294;-67
2022/05/04 02:26:48;;;;;;;;;;;;;;;;;;5059656;28;1338;-67
2022/05/04 02:29:13;;;;;;;;;;;;;;;;;;5059024;28;1349;-67
2022/05/04 02:31:38;;;;;;;;;;;;;;;;;;5061016;28;1318;-67
2022/05/04 02:34:04;;;;;;;;;;;;;;;;;;5060600;28;1259;-67
2022/05/04 02:39:13;;;;;;;;;;;;;;;;;;5060195;28;1294;-67
2022/05/04 02:41:38;;;;;;;;;;;;;;;;;;5060491;28;1903;-67
2022/05/04 02:44:03;;;;;;;;;;;;;;;;;;5057339;28;1494;-66
2022/05/04 02:46:29;;;;;;;;;;;;;;;;;;5059108;28;1202;-68
2022/05/04 02:49:00;;;;;;;;;;;;;;;;;;5059114;28;1479;-67
2022/05/04 02:51:26;;;;;;;;;;;;;;;;;;5060170;28;1429;-68
2022/05/04 02:53:51;;;;;;;;;;;;;;;;;;5059879;28;1317;-67
2022/05/04 02:56:16;;;;;;;;;;;;;;;;;;5058909;28;1318;-68
2022/05/04 02:58:42;;;;;;;;;;;;;;;;;;5060004;28;1333;-67
2022/05/04 03:03:56;;;;;;;;;;;;;;;;;;5057980;28;1064;-67
2022/05/04 03:06:22;;;;;;;;;;;;;;;;;;5057056;28;1301;-69
2022/05/04 03:08:47;;;;;;;;;;;;;;;;;;5058670;28;1361;-69
2022/05/04 03:13:56;;;;;;;;;;;;;;;;;;5058450;28;1378;-68
2022/05/04 03:16:21;;;;;;;;;;;;;;;;;;5058827;28;1442;-66
2022/05/04 03:18:47;;;;;;;;;;;;;;;;;;5059983;28;1283;-66
2022/05/04 03:21:12;;;;;;;;;;;;;;;;;;5059832;28;1975;-66
2022/05/04 03:23:37;;;;;;;;;;;;;;;;;;5060003;28;1239;-66
2022/05/04 03:26:02;;;;;;;;;;;;;;;;;;5060046;28;1247;-67
2022/05/04 03:28:27;;;;;;;;;;;;;;;;;;5058567;28;1341;-67
2022/05/04 03:30:53;;;;;;;;;;;;;;;;;;5059314;28;1329;-67
2022/05/04 03:33:18;;;;;;;;;;;;;;;;;;5059112;28;1534;-67
2022/05/04 03:35:43;;;;;;;;;;;;;;;;;;5058962;28;1271;-67
2022/05/04 03:38:08;;;;;;;;;;;;;;;;;;5056957;28;1585;-67
2022/05/04 03:40:33;;;;;;;;;;;;;;;;;;5060033;28;1263;-68
2022/05/04 03:42:58;;;;;;;;;;;;;;;;;;5054273;28;1901;-67
2022/05/04 03:45:24;;;;;;;;;;;;;;;;;;5059390;28;1271;-67
2022/05/04 03:47:49;;;;;;;;;;;;;;;;;;5059352;28;1255;-67
2022/05/04 03:50:14;;;;;;;;;;;;;;;;;;5059932;28;1322;-67
2022/05/04 03:52:39;;;;;;;;;;;;;;;;;;5059144;28;1279;-67
2022/05/04 03:55:15;;;;;;;;;;;;;;;;;;;;;
2022/05/04 03:57:40;;;;;;;;;;;;;;;;;;5059993;28;1368;-67
2022/05/04 04:00:06;;;;;;;;;;;;;;;;;;5062925;28;1199;-67
2022/05/04 04:02:31;;;;;;;;;;;;;;;;;;5061473;28;1906;-67
2022/05/04 04:04:56;;;;;;;;;;;;;;;;;;5058535;28;1503;-67
2022/05/04 04:07:21;;;;;;;;;;;;;;;;;;5061891;28;1270;-67
2022/05/04 04:09:46;;;;;;;;;;;;;;;;;;5062181;28;1442;-67
2022/05/04 04:12:12;;;;;;;;;;;;;;;;;;5062026;28;1402;-67
2022/05/04 04:14:37;;;;;;;;;;;;;;;;;;5061423;28;1921;-67
2022/05/04 04:17:02;;;;;;;;;;;;;;;;;;5062827;28;1262;-67
2022/05/04 04:19:27;;;;;;;;;;;;;;;;;;5062925;28;1296;-66
2022/05/04 04:21:53;;;;;;;;;;;;;;;;;;5062108;28;1969;-68
2022/05/04 04:24:20;;;;;;;;;;;;;;;;;;5062766;28;1259;-67
2022/05/04 04:26:45;;;;;;;;;;;;;;;;;;5061356;28;1278;-67
2022/05/04 04:29:11;;;;;;;;;;;;;;;;;;5060520;28;1438;-67
2022/05/04 04:31:36;;;;;;;;;;;;;;;;;;5061078;28;1195;-67
2022/05/04 04:34:01;;;;;;;;;;;;;;;;;;5060789;28;1750;-67
2022/05/04 04:36:27;;;;;;;;;;;;;;;;;;5061880;28;1212;-67
2022/05/04 04:38:52;;;;;;;;;;;;;;;;;;5062180;28;1259;-68
2022/05/04 04:41:17;;;;;;;;;;;;;;;;;;5059022;28;1889;-67
2022/05/04 04:43:43;;;;;;;;;;;;;;;;;;5061793;28;1096;-67
2022/05/04 04:46:08;;;;;;;;;;;;;;;;;;5062879;28;1239;-67
2022/05/04 04:48:33;;;;;;;;;;;;;;;;;;5061672;28;1403;-69
2022/05/04 04:50:59;;;;;;;;;;;;;;;;;;5061718;28;1274;-68
2022/05/04 04:53:25;;;;;;;;;;;;;;;;;;5060092;28;1373;-67
2022/05/04 04:55:50;;;;;;;;;;;;;;;;;;5061998;28;1211;-68
2022/05/04 04:58:15;;;;;;;;;;;;;;;;;;5061482;28;1404;-67
2022/05/04 05:00:40;;;;;;;;;;;;;;;;;;5062093;28;1361;-67
2022/05/04 05:03:06;;;;;;;;;;;;;;;;;;5057159;28;1963;-67
2022/05/04 05:05:31;;;;;;;;;;;;;;;;;;5060526;28;1220;-67
2022/05/04 05:07:57;;;;;;;;;;;;;;;;;;5060257;28;1369;-67
2022/05/04 05:10:22;;;;;;;;;;;;;;;;;;5060659;28;1323;-68
2022/05/04 05:12:50;;;;;;;;;;;;;;;;;;5061407;28;1573;-67
2022/05/04 05:17:59;;;;;;;;;;;;;;;;;;5060186;28;1303;-65
2022/05/04 05:20:24;;;;;;;;;;;;;;;;;;5062068;28;1322;-68
2022/05/04 05:22:49;;;;;;;;;;;;;;;;;;5061121;28;1890;-67
2022/05/04 05:25:15;;;;;;;;;;;;;;;;;;5061529;28;1377;-66
2022/05/04 05:27:40;;;;;;;;;;;;;;;;;;5060730;28;1365;-67
2022/05/04 05:30:06;;;;;;;;;;;;;;;;;;5060696;28;1550;-65
2022/05/04 05:32:32;;;;;;;;;;;;;;;;;;5061725;28;1561;-66
2022/05/04 05:34:57;;;;;;;;;;;;;;;;;;5064683;28;961;-64
2022/05/04 05:37:22;;;;;;;;;;;;;;;;;;5062030;28;1270;-66
2022/05/04 05:39:48;;;;;;;;;;;;;;;;;;5064069;28;1446;-65
2022/05/04 05:42:13;;;;;;;;;;;;;;;;;;5061983;28;1951;-65
2022/05/04 05:44:39;;;;;;;;;;;;;;;;;;5063621;28;1561;-66
2022/05/04 05:47:04;;;;;;;;;;;;;;;;;;5063982;28;826;-65
2022/05/04 05:49:29;;;;;;;;;;;;;;;;;;5063430;28;1260;-66
2022/05/04 05:51:55;;;;;;;;;;;;;;;;;;5063717;28;918;-65
2022/05/04 05:54:20;;;;;;;;;;;;;;;;;;5064475;28;925;-66
2022/05/04 05:56:45;;;;;;;;;;;;;;;;;;5064972;28;1040;-66
2022/05/04 05:59:12;;;;;;;;;;;;;;;;;;5062734;28;1494;-66
2022/05/04 06:01:37;;;;;;;;;;;;;;;;;;5061447;28;1955;-66
2022/05/04 06:04:02;;;;;;;;;;;;;;;;;;5061376;28;1266;-66
2022/05/04 06:06:27;;;;;;;;;;;;;;;;;;5062639;28;1462;-66
2022/05/04 06:08:53;;;;;;;;;;;;;;;;;;5062647;28;1145;-65
2022/05/04 06:11:18;;;;;;;;;;;;;;;;;;5062586;28;894;-65
2022/05/04 06:13:43;;;;;;;;;;;;;;;;;;5062428;28;1529;-66
2022/05/04 06:16:09;;;;;;;;;;;;;;;;;;5062358;28;985;-66
2022/05/04 06:18:34;;;;;;;;;;;;;;;;;;5062205;28;1208;-66
2022/05/04 06:20:59;;;;;;;;;;;;;;;;;;5062211;28;799;-66
2022/05/04 06:23:24;;;;;;;;;;;;;;;;;;5062653;28;1973;-65
2022/05/04 06:25:50;;;;;;;;;;;;;;;;;;5062379;28;798;-65
2022/05/04 06:28:15;;;;;;;;;;;;;;;;;;5061922;28;1451;-64
2022/05/04 06:36:08;;;;;;;;;;;;;;;;;;5062262;28;1379;-65
2022/05/04 06:38:33;;;;;;;;;;;;;;;;;;5061355;28;1344;-65
2022/05/04 06:40:58;;;;;;;;;;;;;;;;;;5062551;28;929;-65
2022/05/04 06:43:24;;;;;;;;;;;;;;;;;;5061646;28;1965;-65
2022/05/04 06:45:49;;;;;;;;;;;;;;;;;;5062196;28;869;-65
2022/05/04 06:48:14;;;;;;;;;;;;;;;;;;5061531;28;1189;-65
2022/05/04 06:50:39;;;;;;;;;;;;;;;;;;5062596;28;815;-65
2022/05/04 06:53:04;;;;;;;;;;;;;;;;;;5062253;28;1036;-65
2022/05/04 06:55:30;;;;;;;;;;;;;;;;;;5061734;28;969;-65
2022/05/04 06:57:55;;;;;;;;;;;;;;;;;;5061602;28;1303;-66
2022/05/04 07:00:20;;;;;;;;;;;;;;;;;;5062236;28;1442;-65
2022/05/04 07:02:45;;;;;;;;;;;;;;;;;;5061960;28;1897;-65
2022/05/04 07:05:10;;;;;;;;;;;;;;;;;;5061774;28;873;-65
2022/05/04 07:07:36;;;;;;;;;;;;;;;;;;5060414;28;1270;-66
2022/05/04 07:10:01;;;;;;;;;;;;;;;;;;5062044;28;1601;-65
2022/05/04 07:12:26;;;;;;;;;;;;;;;;;;5061599;28;865;-66
2022/05/04 07:14:53;;;;;;;;;;;;;;;;;;5064458;28;1451;-66
2022/05/04 07:17:18;;;;;;;;;;;;;;;;;;5062874;28;799;-65
2022/05/04 07:19:43;;;;;;;;;;;;;;;;;;5061076;28;1573;-64
2022/05/04 07:22:09;;;;;;;;;;;;;;;;;;5062050;28;1965;-65
2022/05/04 07:24:34;;;;;;;;;;;;;;;;;;5061469;28;1395;-65
2022/05/04 07:26:59;;;;;;;;;;;;;;;;;;5061341;28;910;-65
2022/05/04 07:29:24;;;;;;;;;;;;;;;;;;5060978;28;1506;-65
2022/05/04 07:31:49;;;;;;;;;;;;;;;;;;5063447;28;835;-65
2022/05/04 07:34:15;;;;;;;;;;;;;;;;;;5065140;28;1107;-66
2022/05/04 07:36:40;;;;;;;;;;;;;;;;;;5065107;28;830;-66
2022/05/04 07:39:05;;;;;;;;;;;;;;;;;;5064700;28;1251;-65
2022/05/04 07:44:14;;;;;;;;;;;;;;;;;;5065391;28;703;-65
2022/05/04 07:46:41;;;;;;;;;;;;;;;;;;5064751;28;1577;-65
2022/05/04 07:49:07;;;;;;;;;;;;;;;;;;5065376;28;1121;-65
2022/05/04 07:51:32;;;;;;;;;;;;;;;;;;5065278;28;832;-65
2022/05/04 07:53:58;;;;;;;;;;;;;;;;;;5065400;28;1525;-65
2022/05/04 07:56:23;;;;;;;;;;;;;;;;;;5065084;28;949;-65
2022/05/04 07:58:48;;;;;;;;;;;;;;;;;;5065154;28;1287;-65
2022/05/04 08:06:41;;;;;;;;;;;;;;;;;;5066125;28;620;-65
2022/05/04 08:09:06;;;;;;;;;;;;;;;;;;5064768;28;1530;-66
2022/05/04 08:11:31;;;;;;;;;;;;;;;;;;5065146;28;894;-65
2022/05/04 08:13:56;;;;;;;;;;;;;;;;;;5065041;28;1702;-66
2022/05/04 08:16:22;;;;;;;;;;;;;;;;;;5064953;28;1052;-66
2022/05/04 08:18:47;;;;;;;;;;;;;;;;;;5064372;28;1367;-66
2022/05/04 08:21:12;;;;;;;;;;;;;;;;;;5063798;28;1889;-64
2022/05/04 08:23:37;;;;;;;;;;;;;;;;;;5064696;28;909;-65
2022/05/04 08:26:03;;;;;;;;;;;;;;;;;;5065703;28;858;-65
2022/05/04 08:28:28;;;;;;;;;;;;;;;;;;5063933;28;1271;-66
2022/05/04 08:30:54;;;;;;;;;;;;;;;;;;5064593;28;1474;-66
2022/05/04 08:33:19;;;;;;;;;;;;;;;;;;5063076;28;1480;-66
2022/05/04 08:35:44;;;;;;;;;;;;;;;;;;5064274;28;813;-65
2022/05/04 08:38:10;;;;;;;;;;;;;;;;;;5064009;28;1227;-66
2022/05/04 08:40:36;;;;;;;;;;;;;;;;;;5064350;28;873;-66
2022/05/04 08:43:05;;;;;;;;;;;;;;;;;;5063258;28;1977;-66
2022/05/04 08:45:31;;;;;;;;;;;;;;;;;;5062521;28;1428;-66
2022/05/04 08:47:57;;;;;;;;;;;;;;;;;;5063815;28;1180;-66
2022/05/04 08:50:23;;;;;;;;;;;;;;;;;;5063764;28;850;-65
2022/05/04 08:52:53;;;;;;;;;;;;;;;;;;5064027;28;869;-66
2022/05/04 08:55:19;;;;;;;;;;;;;;;;;;5063808;28;889;-65
2022/05/04 08:57:44;;;;;;;;;;;;;;;;;;5062533;28;1719;-65
2022/05/04 09:00:10;;;;;;;;;;;;;;;;;;5063615;28;1514;-66
2022/05/04 09:02:35;;;;;;;;;;;;;;;;;;5063697;28;1922;-65
2022/05/04 09:05:14;;;;;;;;;;;;;;;;;;5063697;28;1463;-66
2022/05/04 09:07:39;;;;;;;;;;;;;;;;;;5063420;28;1148;-66
2022/05/04 09:10:05;;;;;;;;;;;;;;;;;;5063904;28;1044;-66
2022/05/04 09:12:32;;;;;;;;;;;;;;;;;;5063649;28;1525;-66
2022/05/04 09:14:57;;;;;;;;;;;;;;;;;;5064318;28;876;-66
2022/05/04 09:17:22;;;;;;;;;;;;;;;;;;5063754;28;1282;-66
2022/05/04 09:22:38;;;;;;;;;;;;;;;;;;5043875;28;1910;-66
2022/05/04 09:25:03;;;;;;;;;;;;;;;;;;5043476;28;965;-66
2022/05/04 09:27:29;;;;;;;;;;;;;;;;;;5047853;28;1515;-65
2022/05/04 09:29:59;;;;;;;;;;;;;;;;;;5063264;28;1538;-66
2022/05/04 09:32:29;;;;;;;;;;;;;;;;;;5063497;28;1059;-65
2022/05/04 09:34:54;;;;;;;;;;;;;;;;;;5063381;28;951;-65
2022/05/04 09:46:00;;;;;;;;;;;;;;;;;;5025746;28;1595;-65
2022/05/04 09:48:29;;;;;;;;;;;;;;;;;;5062489;28;1450;-65
2022/05/04 09:51:02;;;;;;;;;;;;;;;;;;5062856;28;901;-66
2022/05/04 09:53:27;;;;;;;;;;;;;;;;;;5061266;28;1431;-66
2022/05/04 09:55:54;;;;;;;;;;;;;;;;;;5061162;28;1017;-64
2022/05/04 09:58:19;;;;;;;;;;;;;;;;;;5062477;28;1265;-66
2022/05/04 10:00:45;;;;;;;;;;;;;;;;;;5062940;28;1501;-65
2022/05/04 10:03:11;;;;;;;;;;;;;;;;;;5061842;28;1964;-66
2022/05/04 10:05:37;;;;;;;;;;;;;;;;;;5063166;28;825;-66
2022/05/04 10:08:02;;;;;;;;;;;;;;;;;;5062418;28;1282;-66
2022/05/04 10:10:28;;;;;;;;;;;;;;;;;;5061211;28;1432;-66
2022/05/04 10:12:54;;;;;;;;;;;;;;;;;;5063329;28;1486;-65
2022/05/04 10:15:19;;;;;;;;;;;;;;;;;;5062823;28;965;-66
2022/05/04 10:17:44;;;;;;;;;;;;;;;;;;5062548;28;1157;-66
2022/05/04 10:20:12;;;;;;;;;;;;;;;;;;5062244;28;814;-66
2022/05/04 10:22:42;;;;;;;;;;;;;;;;;;5063326;28;1898;-65
2022/05/04 10:25:08;;;;;;;;;;;;;;;;;;5061247;28;1285;-66
2022/05/04 10:27:37;;;;;;;;;;;;;;;;;;5062189;28;1423;-66
2022/05/04 10:32:55;;;;;;;;;;;;;;;;;;5062602;28;687;-65
2022/05/04 10:35:23;;;;;;;;;;;;;;;;;;5062757;28;828;-66
2022/05/04 10:37:57;;;;;;;;;;;;;;;;;;5062151;28;1125;-66
2022/05/04 10:40:26;;;;;;;;;;;;;;;;;;5061895;28;1514;-66
2022/05/04 10:42:54;;;;;;;;;;;;;;;;;;5061049;28;1969;-66
2022/05/04 10:45:21;;;;;;;;;;;;;;;;;;5062373;28;1471;-66
2022/05/04 10:47:48;;;;;;;;;;;;;;;;;;5061897;28;1188;-66
2022/05/04 10:50:16;;;;;;;;;;;;;;;;;;5062299;28;1052;-67
2022/05/04 10:52:48;;;;;;;;;;;;;;;;;;5062672;28;837;-65
2022/05/04 10:55:13;;;;;;;;;;;;;;;;;;5062357;28;834;-65
2022/05/04 10:57:40;;;;;;;;;;;;;;;;;;5061512;28;1160;-66
2022/05/04 11:00:05;;;;;;;;;;;;;;;;;;5062294;28;1466;-66
2022/05/04 11:02:31;;;;;;;;;;;;;;;;;;5062003;28;1949;-66
2022/05/04 11:04:58;;;;;;;;;;;;;;;;;;5061597;28;873;-66
2022/05/04 11:07:27;;;;;;;;;;;;;;;;;;5061776;28;1537;-66
2022/05/04 11:09:59;;;;;;;;;;;;;;;;;;5062200;28;901;-66
2022/05/04 11:12:25;;;;;;;;;;;;;;;;;;5061843;28;814;-65
2022/05/04 11:14:50;;;;;;;;;;;;;;;;;;5061704;28;1462;-66
2022/05/04 11:17:16;;;;;;;;;;;;;;;;;;5061941;28;842;-66
2022/05/04 11:19:42;;;;;;;;;;;;;;;;;;5062027;28;1232;-66
2022/05/04 11:22:07;;;;;;;;;;;;;;;;;;5061672;28;1889;-66
2022/05/04 11:24:33;;;;;;;;;;;;;;;;;;5061800;28;811;-66
2022/05/04 11:26:58;;;;;;;;;;;;;;;;;;5062058;28;906;-66
2022/05/04 11:29:24;;;;;;;;;;;;;;;;;;5061238;28;1550;-67
2022/05/04 11:31:54;;;;;;;;;;;;;;;;;;5060268;28;1310;-67
2022/05/04 11:34:20;;;;;;;;;;;;;;;;;;5060389;28;1475;-66
2022/05/04 11:36:46;;;;;;;;;;;;;;;;;;5061940;28;746;-66
2022/05/04 11:39:15;;;;;;;;;;;;;;;;;;5061407;28;1270;-66
2022/05/04 11:41:43;;;;;;;;;;;;;;;;;;5063289;28;1980;-65
2022/05/04 11:44:08;;;;;;;;;;;;;;;;;;5060208;28;1614;-66
2022/05/04 11:46:33;;;;;;;;;;;;;;;;;;5061453;28;827;-66
2022/05/04 11:48:59;;;;;;;;;;;;;;;;;;5059942;28;1266;-66
2022/05/04 11:51:24;;;;;;;;;;;;;;;;;;5061326;28;977;-66
2022/05/04 11:53:49;;;;;;;;;;;;;;;;;;5060937;28;910;-66
2022/05/04 11:56:14;;;;;;;;;;;;;;;;;;5061460;28;787;-66
2022/05/04 11:58:41;;;;;;;;;;;;;;;;;;5060735;28;1442;-66
2022/05/04 12:01:08;;;;;;;;;;;;;;;;;;5061111;28;810;-66
2022/05/04 12:03:37;;;;;;;;;;;;;;;;;;5060909;28;1961;-66
2022/05/04 12:06:04;;;;;;;;;;;;;;;;;;5060706;28;1275;-66
2022/05/04 12:08:29;;;;;;;;;;;;;;;;;;5060831;28;1124;-66
2022/05/04 12:10:55;;;;;;;;;;;;;;;;;;5060780;28;891;-66
2022/05/04 12:13:24;;;;;;;;;;;;;;;;;;5061077;28;1451;-66
2022/05/04 12:15:54;;;;;;;;;;;;;;;;;;5061032;28;824;-66
2022/05/04 12:18:19;;;;;;;;;;;;;;;;;;5062521;28;1588;-66
2022/05/04 12:20:46;;;;;;;;;;;;;;;;;;5064531;28;1039;-66
2022/05/04 12:23:12;;;;;;;;;;;;;;;;;;5064418;28;1965;-65
2022/05/04 12:25:39;;;;;;;;;;;;;;;;;;5064826;28;838;-66
2022/05/04 12:28:04;;;;;;;;;;;;;;;;;;5062698;28;1512;-65
2022/05/04 12:33:13;;;;;;;;;;;;;;;;;;5064690;28;636;-66
2022/05/04 12:35:40;;;;;;;;;;;;;;;;;;5063315;28;1151;-67
2022/05/04 12:38:06;;;;;;;;;;;;;;;;;;5063889;28;1156;-67
2022/05/04 12:40:32;;;;;;;;;;;;;;;;;;5064269;28;968;-67
2022/05/04 12:42:59;;;;;;;;;;;;;;;;;;5064094;28;1967;-67
2022/05/04 12:45:24;;;;;;;;;;;;;;;;;;5064476;28;1463;-67
2022/05/04 12:47:50;;;;;;;;;;;;;;;;;;5062226;28;1559;-66
2022/05/04 12:50:15;;;;;;;;;;;;;;;;;;5063797;28;933;-66
2022/05/04 12:52:40;;;;;;;;;;;;;;;;;;5063959;28;878;-67
2022/05/04 12:55:06;;;;;;;;;;;;;;;;;;5064350;28;862;-67
2022/05/04 12:57:31;;;;;;;;;;;;;;;;;;5063622;28;1494;-67
2022/05/04 12:59:56;;;;;;;;;;;;;;;;;;5063702;28;1049;-67
2022/05/04 13:02:21;;;;;;;;;;;;;;;;;;5062951;28;1965;-67
2022/05/04 13:04:47;;;;;;;;;;;;;;;;;;5062359;28;1549;-67
2022/05/04 13:07:12;;;;;;;;;;;;;;;;;;5061997;28;1380;-74
2022/05/04 13:09:38;;;;;;;;;;;;;;;;;;5062855;28;1275;-73
2022/05/04 13:12:03;;;;;;;;;;;;;;;;;;5055087;28;1395;-78
2022/05/04 13:14:28;;;;;;;;;;;;;;;;;;5058199;28;1283;-74
2022/05/04 13:16:54;;;;;;;;;;;;;;;;;;5063074;28;1290;-74
2022/05/04 13:19:19;;;;;;;;;;;;;;;;;;5060788;28;1334;-74
2022/05/04 13:21:44;;;;;;;;;;;;;;;;;;5062476;28;1967;-74
2022/05/04 13:24:09;;;;;;;;;;;;;;;;;;5052444;28;1554;-76
2022/05/04 13:26:35;;;;;;;;;;;;;;;;;;5064119;28;1397;-74
2022/05/04 13:29:00;;;;;;;;;;;;;;;;;;5061885;28;1529;-72
2022/05/04 13:31:25;;;;;;;;;;;;;;;;;;5062658;28;1438;-72
2022/05/04 13:33:52;;;;;;;;;;;;;;;;;;5061705;28;1530;-72
2022/05/04 13:36:17;;;;;;;;;;;;;;;;;;5062591;28;1219;-72
2022/05/04 13:38:42;;;;;;;;;;;;;;;;;;5060761;28;1296;-73
2022/05/04 13:41:07;;;;;;;;;;;;;;;;;;5061696;28;1199;-74
2022/05/04 13:43:32;;;;;;;;;;;;;;;;;;5060446;28;1953;-74
2022/05/04 13:45:58;;;;;;;;;;;;;;;;;;5055857;28;1340;-74
2022/05/04 13:48:23;;;;;;;;;;;;;;;;;;5061897;28;1236;-74
2022/05/04 13:53:32;;;;;;;;;;;;;;;;;;5062321;28;1506;-73
2022/05/04 13:55:57;;;;;;;;;;;;;;;;;;5061218;28;1426;-74
2022/05/04 13:58:23;;;;;;;;;;;;;;;;;;5060792;28;1363;-73
2022/05/04 14:00:49;;;;;;;;;;;;;;;;;;5061331;28;1487;-74
2022/05/04 14:03:15;;;;;;;;;;;;;;;;;;5060876;28;1890;-73
2022/05/04 14:05:41;;;;;;;;;;;;;;;;;;5061006;28;1349;-74
2022/05/04 14:08:06;;;;;;;;;;;;;;;;;;5059153;28;1596;-73
2022/05/04 14:10:32;;;;;;;;;;;;;;;;;;5057806;28;1391;-73
2022/05/04 14:13:00;;;;;;;;;;;;;;;;;;5061905;28;1108;-74
2022/05/04 14:15:26;;;;;;;;;;;;;;;;;;5058478;28;1533;-74
2022/05/04 14:17:51;;;;;;;;;;;;;;;;;;5059298;28;1361;-74
2022/05/04 14:20:16;;;;;;;;;;;;;;;;;;5062440;28;1164;-73
2022/05/04 14:22:41;;;;;;;;;;;;;;;;;;5060603;28;1897;-73
2022/05/04 14:25:07;;;;;;;;;;;;;;;;;;5061449;28;1459;-73
2022/05/04 14:27:32;;;;;;;;;;;;;;;;;;5060167;28;1296;-73
2022/05/04 14:29:57;;;;;;;;;;;;;;;;;;5057716;28;1529;-74
2022/05/04 14:32:23;;;;;;;;;;;;;;;;;;5061785;28;1182;-72
2022/05/04 14:34:48;;;;;;;;;;;;;;;;;;5061136;28;1104;-73
2022/05/04 14:37:13;;;;;;;;;;;;;;;;;;5051475;28;1300;-71
2022/05/04 14:39:38;;;;;;;;;;;;;;;;;;5058953;28;1457;-71
2022/05/04 14:42:04;;;;;;;;;;;;;;;;;;5058997;28;1875;-74
2022/05/04 14:44:29;;;;;;;;;;;;;;;;;;5052660;28;1487;-74
2022/05/04 14:46:55;;;;;;;;;;;;;;;;;;5059262;28;1555;-73
2022/05/04 14:49:20;;;;;;;;;;;;;;;;;;5059329;28;1326;-77
2022/05/04 14:51:45;;;;;;;;;;;;;;;;;;5058367;28;1507;-76
2022/05/04 14:54:10;;;;;;;;;;;;;;;;;;5061569;28;1153;-76
2022/05/04 14:56:36;;;;;;;;;;;;;;;;;;5060263;28;1279;-75
2022/05/04 14:59:01;;;;;;;;;;;;;;;;;;5060844;28;1269;-78
2022/05/04 15:01:26;;;;;;;;;;;;;;;;;;5059482;28;1965;-76
2022/05/04 15:06:36;;;;;;;;;;;;;;;;;;5061729;28;1049;-74
2022/05/04 15:09:01;;;;;;;;;;;;;;;;;;5060891;28;1168;-73
2022/05/04 15:11:26;;;;;;;;;;;;;;;;;;5058837;28;1336;-73
2022/05/04 15:13:51;;;;;;;;;;;;;;;;;;5060038;28;1344;-75
2022/05/04 15:16:17;;;;;;;;;;;;;;;;;;5061428;28;1211;-76
2022/05/04 15:18:42;;;;;;;;;;;;;;;;;;5060778;28;1211;-76
2022/05/04 15:21:08;;;;;;;;;;;;;;;;;;5061289;28;905;-76
2022/05/04 15:23:33;;;;;;;;;;;;;;;;;;5058718;28;1955;-75
2022/05/04 15:25:58;;;;;;;;;;;;;;;;;;5061838;28;1085;-76
2022/05/04 15:28:24;;;;;;;;;;;;;;;;;;5060842;28;1270;-77
2022/05/04 15:30:49;;;;;;;;;;;;;;;;;;5061085;28;1005;-77
2022/05/04 15:33:14;;;;;;;;;;;;;;;;;;5059214;28;1342;-78
2022/05/04 15:35:39;;;;;;;;;;;;;;;;;;5061686;28;1378;-76
2022/05/04 15:38:05;;;;;;;;;;;;;;;;;;5060079;28;1243;-76
2022/05/04 15:40:31;;;;;;;;;;;;;;;;;;5060718;28;1482;-77
2022/05/04 15:42:56;;;;;;;;;;;;;;;;;;5061105;28;1967;-75
2022/05/04 15:45:22;;;;;;;;;;;;;;;;;;5059704;28;1366;-75
2022/05/04 15:47:48;;;;;;;;;;;;;;;;;;5055433;28;1497;-75
2022/05/04 15:50:14;;;;;;;;;;;;;;;;;;5049983;28;1093;-74
2022/05/04 15:52:40;;;;;;;;;;;;;;;;;;5063222;28;818;-74
2022/05/04 15:55:05;;;;;;;;;;;;;;;;;;5062595;28;1506;-75
2022/05/04 15:57:31;;;;;;;;;;;;;;;;;;5064612;28;1252;-76
2022/05/04 15:59:56;;;;;;;;;;;;;;;;;;5064469;28;1597;-69
2022/05/04 16:03:57;;;;;;;;;;;;;;;;;;5063326;28;1890;-72
2022/05/04 16:05:07;;;;;;;;;;;;;;;;;;5061555;28;1526;-71
2022/05/04 16:07:32;;;;;;;;;;;;;;;;;;5062313;28;1278;-71
2022/05/04 16:09:57;;;;;;;;;;;;;;;;;;5062787;28;1346;-71
2022/05/04 16:12:23;;;;;;;;;;;;;;;;;;5053043;28;1525;-71
2022/05/04 16:14:48;;;;;;;;;;;;;;;;;;5044206;28;1447;-72
2022/05/04 16:22:41;;;;;;;;;;;;;;;;;;5063827;28;1955;-70
2022/05/04 16:25:06;;;;;;;;;;;;;;;;;;5063204;28;1342;-70
2022/05/04 16:27:31;;;;;;;;;;;;;;;;;;5060806;28;1636;-72
2022/05/04 16:29:57;;;;;;;;;;;;;;;;;;5061998;28;1419;-70
2022/05/04 16:32:22;;;;;;;;;;;;;;;;;;5061429;28;1550;-71
2022/05/04 16:34:47;;;;;;;;;;;;;;;;;;5058969;28;1506;-70
2022/05/04 16:37:12;;;;;;;;;;;;;;;;;;5077807;28;1298;-71
2022/05/04 16:39:37;;;;;;;;;;;;;;;;;;5063251;28;1302;-72
2022/05/04 16:42:03;;;;;;;;;;;;;;;;;;5062386;28;1894;-70
2022/05/04 16:44:28;;;;;;;;;;;;;;;;;;5061776;28;1381;-71
2022/05/04 16:46:53;;;;;;;;;;;;;;;;;;5062504;28;1227;-71
2022/05/04 16:49:18;;;;;;;;;;;;;;;;;;5061641;28;1596;-70
2022/05/04 16:51:44;;;;;;;;;;;;;;;;;;5060839;28;1242;-71
2022/05/04 16:54:09;;;;;;;;;;;;;;;;;;5060650;28;1436;-71
2022/05/04 16:56:34;;;;;;;;;;;;;;;;;;5062727;28;1674;-70
2022/05/04 16:58:59;;;;;;;;;;;;;;;;;;5062270;28;1639;-71
2022/05/04 17:01:24;;;;;;;;;;;;;;;;;;5061225;28;1486;-72
2022/05/04 17:03:50;;;;;;;;;;;;;;;;;;5062017;28;1973;-70
2022/05/04 17:06:15;;;;;;;;;;;;;;;;;;5062209;28;1355;-70
2022/05/04 17:08:41;;;;;;;;;;;;;;;;;;5061961;28;1502;-69
2022/05/04 17:11:06;;;;;;;;;;;;;;;;;;5061857;28;1442;-69
2022/05/04 17:13:32;;;;;;;;;;;;;;;;;;5062279;28;1420;-69
2022/05/04 17:15:58;;;;;;;;;;;;;;;;;;5060959;28;1613;-70
2022/05/04 17:18:23;;;;;;;;;;;;;;;;;;5060590;28;1769;-70
2022/05/04 17:20:48;;;;;;;;;;;;;;;;;;5062408;28;1726;-71
2022/05/04 17:23:13;;;;;;;;;;;;;;;;;;5062415;28;1894;-70
2022/05/04 17:25:38;;;;;;;;;;;;;;;;;;5061812;28;1261;-70
2022/05/04 17:28:04;;;;;;;;;;;;;;;;;;5062332;28;1536;-71
2022/05/04 17:30:29;;;;;;;;;;;;;;;;;;5062180;28;1015;-71
2022/05/04 17:38:23;;;;;;;;;;;;;;;;;;5061570;28;1601;-70
2022/05/04 17:40:48;;;;;;;;;;;;;;;;;;5061775;28;1530;-69
2022/05/04 17:43:13;;;;;;;;;;;;;;;;;;5061793;28;1894;-70
2022/05/04 17:45:38;;;;;;;;;;;;;;;;;;5061955;28;1536;-70
2022/05/04 17:48:04;;;;;;;;;;;;;;;;;;5061087;28;1518;-69
2022/05/04 17:50:29;;;;;;;;;;;;;;;;;;5061711;28;1347;-70
2022/05/04 17:52:55;;;;;;;;;;;;;;;;;;5061861;28;1526;-70